﻿<?xml version="1.0" encoding="UTF-8" standalone="no" ?>
<gpx xmlns="http://www.topografix.com/GPX/1/1" creator="CompeGPS" version="1.1" xmlns:xsi="http://www.w3.org/2001/XMLSchema-instance" xsi:schemaLocation="http://www.topografix.com/GPX/1/1 http://www.topografix.com/GPX/1/1/gpx.xsd http://www.garmin.com/xmlschemas/GpxExtensions/v3 http://www.garmin.com/xmlschemas/GpxExtensionsv3.xsd http://www.garmin.com/xmlschemas/TrackPointExtension/v1 http://www.garmin.com/xmlschemas/TrackPointExtensionv1.xsd" xmlns:gpxtpx="http://www.garmin.com/xmlschemas/TrackPointExtension/v1">
  <wpt lat="39.785599" lon="-6.032051">
    <ele>303.0</ele>
    <name>CHOZO</name>
    <desc></desc>
    <sym>Residence</sym>
  </wpt>
  <wpt lat="39.779447" lon="-6.022510">
    <ele>281.0</ele>
    <name>MERENDERO</name>
    <desc></desc>
    <sym>Residence</sym>
  </wpt>
  <wpt lat="39.777105" lon="-6.023186">
    <ele>284.1</ele>
    <name>MERENDERO</name>
    <desc></desc>
    <sym>Residence</sym>
  </wpt>
  <wpt lat="39.785068" lon="-6.026927">
    <ele>267.0</ele>
    <name>MOLINO DE LA HOYUELA</name>
    <desc></desc>
    <sym>Residence</sym>
  </wpt>
  <wpt lat="39.782554" lon="-6.023218">
    <ele>-236.8</ele>
    <name>PUENTE DEL ARROYO DE LA CASA</name>
    <desc></desc>
    <sym>Residence</sym>
  </wpt>
  <wpt lat="39.769544" lon="-6.016243">
    <ele>301.1</ele>
    <name>TORREJON EL RUBIO</name>
    <desc></desc>
    <sym>Residence</sym>
  </wpt>
  <wpt lat="39.769644" lon="-6.016158">
    <ele>299.0</ele>
    <name>TORREJON EL RUBIO</name>
    <desc></desc>
    <sym>Residence</sym>
  </wpt>
  <trk>
    <name>TRACK LIMPIO SL-CC 43</name>
    <desc>SL-CC 43</desc>
    <trkseg>
      <trkpt lat="39.769629" lon="-6.016142">
        <ele>299.1</ele>
        <time>2019-05-11T10:13:16Z</time>
      </trkpt>
      <trkpt lat="39.769680" lon="-6.016113">
        <ele>299.1</ele>
        <time>2019-05-11T10:13:32Z</time>
      </trkpt>
      <trkpt lat="39.769769" lon="-6.016131">
        <ele>297.7</ele>
        <time>2019-05-11T10:14:00Z</time>
      </trkpt>
      <trkpt lat="39.769924" lon="-6.016292">
        <ele>296.7</ele>
        <time>2019-05-11T10:14:19Z</time>
      </trkpt>
      <trkpt lat="39.770028" lon="-6.016484">
        <ele>296.7</ele>
        <time>2019-05-11T10:14:37Z</time>
      </trkpt>
      <trkpt lat="39.770122" lon="-6.016725">
        <ele>296.2</ele>
        <time>2019-05-11T10:14:58Z</time>
      </trkpt>
      <trkpt lat="39.770169" lon="-6.016844">
        <ele>296.2</ele>
        <time>2019-05-11T10:15:16Z</time>
      </trkpt>
      <trkpt lat="39.770241" lon="-6.017017">
        <ele>296.2</ele>
        <time>2019-05-11T10:16:04Z</time>
      </trkpt>
      <trkpt lat="39.770301" lon="-6.017203">
        <ele>296.2</ele>
        <time>2019-05-11T10:16:21Z</time>
      </trkpt>
      <trkpt lat="39.770396" lon="-6.017423">
        <ele>296.2</ele>
        <time>2019-05-11T10:16:38Z</time>
      </trkpt>
      <trkpt lat="39.770455" lon="-6.017553">
        <ele>296.2</ele>
        <time>2019-05-11T10:16:49Z</time>
      </trkpt>
      <trkpt lat="39.770485" lon="-6.017644">
        <ele>296.2</ele>
        <time>2019-05-11T10:16:57Z</time>
      </trkpt>
      <trkpt lat="39.770526" lon="-6.017833">
        <ele>296.2</ele>
        <time>2019-05-11T10:18:13Z</time>
      </trkpt>
      <trkpt lat="39.770528" lon="-6.017832">
        <ele>296.2</ele>
        <time>2019-05-11T10:18:41Z</time>
      </trkpt>
      <trkpt lat="39.770534" lon="-6.018034">
        <ele>296.2</ele>
        <time>2019-05-11T10:19:46Z</time>
      </trkpt>
      <trkpt lat="39.770527" lon="-6.018301">
        <ele>296.2</ele>
        <time>2019-05-11T10:20:06Z</time>
      </trkpt>
      <trkpt lat="39.770542" lon="-6.018491">
        <ele>295.7</ele>
        <time>2019-05-11T10:20:38Z</time>
      </trkpt>
      <trkpt lat="39.770562" lon="-6.018764">
        <ele>294.3</ele>
        <time>2019-05-11T10:20:59Z</time>
      </trkpt>
      <trkpt lat="39.770599" lon="-6.019021">
        <ele>292.9</ele>
        <time>2019-05-11T10:21:19Z</time>
      </trkpt>
      <trkpt lat="39.770608" lon="-6.019236">
        <ele>291.9</ele>
        <time>2019-05-11T10:21:38Z</time>
      </trkpt>
      <trkpt lat="39.770597" lon="-6.019455">
        <ele>290.5</ele>
        <time>2019-05-11T10:22:16Z</time>
      </trkpt>
      <trkpt lat="39.770601" lon="-6.019615">
        <ele>290.0</ele>
        <time>2019-05-11T10:22:37Z</time>
      </trkpt>
      <trkpt lat="39.770603" lon="-6.019817">
        <ele>290.0</ele>
        <time>2019-05-11T10:22:53Z</time>
      </trkpt>
      <trkpt lat="39.770657" lon="-6.019966">
        <ele>290.0</ele>
        <time>2019-05-11T10:23:08Z</time>
      </trkpt>
      <trkpt lat="39.770763" lon="-6.020147">
        <ele>290.0</ele>
        <time>2019-05-11T10:24:13Z</time>
      </trkpt>
      <trkpt lat="39.770851" lon="-6.020355">
        <ele>290.0</ele>
        <time>2019-05-11T10:24:29Z</time>
      </trkpt>
      <trkpt lat="39.770872" lon="-6.020545">
        <ele>290.0</ele>
        <time>2019-05-11T10:24:44Z</time>
      </trkpt>
      <trkpt lat="39.770900" lon="-6.020753">
        <ele>290.0</ele>
        <time>2019-05-11T10:25:03Z</time>
      </trkpt>
      <trkpt lat="39.770935" lon="-6.020943">
        <ele>290.0</ele>
        <time>2019-05-11T10:25:19Z</time>
      </trkpt>
      <trkpt lat="39.771001" lon="-6.021057">
        <ele>290.5</ele>
        <time>2019-05-11T10:30:19Z</time>
      </trkpt>
      <trkpt lat="39.771118" lon="-6.021319">
        <ele>290.5</ele>
        <time>2019-05-11T10:30:42Z</time>
      </trkpt>
      <trkpt lat="39.771234" lon="-6.021508">
        <ele>290.5</ele>
        <time>2019-05-11T10:30:59Z</time>
      </trkpt>
      <trkpt lat="39.771324" lon="-6.021546">
        <ele>290.5</ele>
        <time>2019-05-11T10:31:12Z</time>
      </trkpt>
      <trkpt lat="39.771429" lon="-6.021523">
        <ele>290.9</ele>
        <time>2019-05-11T10:31:56Z</time>
      </trkpt>
      <trkpt lat="39.771590" lon="-6.021394">
        <ele>291.4</ele>
        <time>2019-05-11T10:32:15Z</time>
      </trkpt>
      <trkpt lat="39.771698" lon="-6.021331">
        <ele>291.9</ele>
        <time>2019-05-11T10:32:31Z</time>
      </trkpt>
      <trkpt lat="39.771794" lon="-6.021342">
        <ele>291.9</ele>
        <time>2019-05-11T10:32:54Z</time>
      </trkpt>
      <trkpt lat="39.771879" lon="-6.021360">
        <ele>291.9</ele>
        <time>2019-05-11T10:33:04Z</time>
      </trkpt>
      <trkpt lat="39.772055" lon="-6.021449">
        <ele>290.0</ele>
        <time>2019-05-11T10:33:22Z</time>
      </trkpt>
      <trkpt lat="39.772128" lon="-6.021517">
        <ele>289.0</ele>
        <time>2019-05-11T10:33:43Z</time>
      </trkpt>
      <trkpt lat="39.772208" lon="-6.021588">
        <ele>288.5</ele>
        <time>2019-05-11T10:34:03Z</time>
      </trkpt>
      <trkpt lat="39.772350" lon="-6.021771">
        <ele>288.5</ele>
        <time>2019-05-11T10:34:22Z</time>
      </trkpt>
      <trkpt lat="39.772370" lon="-6.021794">
        <ele>288.5</ele>
        <time>2019-05-11T10:34:57Z</time>
      </trkpt>
      <trkpt lat="39.772556" lon="-6.021932">
        <ele>288.0</ele>
        <time>2019-05-11T10:35:23Z</time>
      </trkpt>
      <trkpt lat="39.772589" lon="-6.021987">
        <ele>288.0</ele>
        <time>2019-05-11T10:35:36Z</time>
      </trkpt>
      <trkpt lat="39.772741" lon="-6.022029">
        <ele>289.0</ele>
        <time>2019-05-11T10:38:22Z</time>
      </trkpt>
      <trkpt lat="39.772874" lon="-6.022116">
        <ele>290.0</ele>
        <time>2019-05-11T10:38:40Z</time>
      </trkpt>
      <trkpt lat="39.773074" lon="-6.022275">
        <ele>290.5</ele>
        <time>2019-05-11T10:39:07Z</time>
      </trkpt>
      <trkpt lat="39.773199" lon="-6.022401">
        <ele>290.9</ele>
        <time>2019-05-11T10:39:22Z</time>
      </trkpt>
      <trkpt lat="39.773314" lon="-6.022546">
        <ele>291.9</ele>
        <time>2019-05-11T10:39:36Z</time>
      </trkpt>
      <trkpt lat="39.773446" lon="-6.022747">
        <ele>292.4</ele>
        <time>2019-05-11T10:39:54Z</time>
      </trkpt>
      <trkpt lat="39.773526" lon="-6.022900">
        <ele>292.4</ele>
        <time>2019-05-11T10:40:10Z</time>
      </trkpt>
      <trkpt lat="39.773574" lon="-6.022960">
        <ele>292.9</ele>
        <time>2019-05-11T10:40:25Z</time>
      </trkpt>
      <trkpt lat="39.773684" lon="-6.023138">
        <ele>294.3</ele>
        <time>2019-05-11T10:40:40Z</time>
      </trkpt>
      <trkpt lat="39.773755" lon="-6.023283">
        <ele>294.8</ele>
        <time>2019-05-11T10:40:53Z</time>
      </trkpt>
      <trkpt lat="39.773865" lon="-6.023459">
        <ele>295.7</ele>
        <time>2019-05-11T10:41:11Z</time>
      </trkpt>
      <trkpt lat="39.773966" lon="-6.023622">
        <ele>296.7</ele>
        <time>2019-05-11T10:41:27Z</time>
      </trkpt>
      <trkpt lat="39.774066" lon="-6.023782">
        <ele>297.7</ele>
        <time>2019-05-11T10:41:42Z</time>
      </trkpt>
      <trkpt lat="39.774161" lon="-6.023893">
        <ele>299.6</ele>
        <time>2019-05-11T10:42:08Z</time>
      </trkpt>
      <trkpt lat="39.774231" lon="-6.023983">
        <ele>300.6</ele>
        <time>2019-05-11T10:42:56Z</time>
      </trkpt>
      <trkpt lat="39.774372" lon="-6.024183">
        <ele>302.0</ele>
        <time>2019-05-11T10:43:16Z</time>
      </trkpt>
      <trkpt lat="39.774456" lon="-6.024269">
        <ele>302.9</ele>
        <time>2019-05-11T10:43:33Z</time>
      </trkpt>
      <trkpt lat="39.774525" lon="-6.024395">
        <ele>303.9</ele>
        <time>2019-05-11T10:44:36Z</time>
      </trkpt>
      <trkpt lat="39.774645" lon="-6.024577">
        <ele>304.4</ele>
        <time>2019-05-11T10:44:52Z</time>
      </trkpt>
      <trkpt lat="39.774741" lon="-6.024715">
        <ele>305.8</ele>
        <time>2019-05-11T10:45:06Z</time>
      </trkpt>
      <trkpt lat="39.774846" lon="-6.024865">
        <ele>306.3</ele>
        <time>2019-05-11T10:45:19Z</time>
      </trkpt>
      <trkpt lat="39.774926" lon="-6.025016">
        <ele>306.8</ele>
        <time>2019-05-11T10:45:33Z</time>
      </trkpt>
      <trkpt lat="39.775071" lon="-6.025217">
        <ele>307.3</ele>
        <time>2019-05-11T10:45:53Z</time>
      </trkpt>
      <trkpt lat="39.775185" lon="-6.025399">
        <ele>307.8</ele>
        <time>2019-05-11T10:46:09Z</time>
      </trkpt>
      <trkpt lat="39.775260" lon="-6.025534">
        <ele>307.8</ele>
        <time>2019-05-11T10:46:55Z</time>
      </trkpt>
      <trkpt lat="39.775344" lon="-6.025670">
        <ele>308.2</ele>
        <time>2019-05-11T10:47:13Z</time>
      </trkpt>
      <trkpt lat="39.775431" lon="-6.025887">
        <ele>309.7</ele>
        <time>2019-05-11T10:48:15Z</time>
      </trkpt>
      <trkpt lat="39.775584" lon="-6.026127">
        <ele>310.7</ele>
        <time>2019-05-11T10:48:36Z</time>
      </trkpt>
      <trkpt lat="39.775702" lon="-6.026340">
        <ele>312.1</ele>
        <time>2019-05-11T10:48:55Z</time>
      </trkpt>
      <trkpt lat="39.775836" lon="-6.026462">
        <ele>312.6</ele>
        <time>2019-05-11T10:49:16Z</time>
      </trkpt>
      <trkpt lat="39.776091" lon="-6.026602">
        <ele>312.6</ele>
        <time>2019-05-11T10:50:23Z</time>
      </trkpt>
      <trkpt lat="39.776245" lon="-6.026719">
        <ele>312.6</ele>
        <time>2019-05-11T10:50:38Z</time>
      </trkpt>
      <trkpt lat="39.776485" lon="-6.026881">
        <ele>311.6</ele>
        <time>2019-05-11T10:51:01Z</time>
      </trkpt>
      <trkpt lat="39.776697" lon="-6.027039">
        <ele>311.1</ele>
        <time>2019-05-11T10:51:21Z</time>
      </trkpt>
      <trkpt lat="39.776846" lon="-6.027138">
        <ele>311.1</ele>
        <time>2019-05-11T10:51:37Z</time>
      </trkpt>
      <trkpt lat="39.777019" lon="-6.027256">
        <ele>310.7</ele>
        <time>2019-05-11T10:51:55Z</time>
      </trkpt>
      <trkpt lat="39.777207" lon="-6.027392">
        <ele>310.7</ele>
        <time>2019-05-11T10:52:15Z</time>
      </trkpt>
      <trkpt lat="39.777323" lon="-6.027482">
        <ele>310.7</ele>
        <time>2019-05-11T10:52:33Z</time>
      </trkpt>
      <trkpt lat="39.777423" lon="-6.027545">
        <ele>310.7</ele>
        <time>2019-05-11T10:52:46Z</time>
      </trkpt>
      <trkpt lat="39.777591" lon="-6.027644">
        <ele>310.7</ele>
        <time>2019-05-11T10:53:04Z</time>
      </trkpt>
      <trkpt lat="39.777772" lon="-6.027782">
        <ele>310.7</ele>
        <time>2019-05-11T10:53:24Z</time>
      </trkpt>
      <trkpt lat="39.777901" lon="-6.027864">
        <ele>310.7</ele>
        <time>2019-05-11T10:53:37Z</time>
      </trkpt>
      <trkpt lat="39.778021" lon="-6.027951">
        <ele>310.7</ele>
        <time>2019-05-11T10:53:50Z</time>
      </trkpt>
      <trkpt lat="39.778142" lon="-6.028039">
        <ele>310.7</ele>
        <time>2019-05-11T10:54:03Z</time>
      </trkpt>
      <trkpt lat="39.778150" lon="-6.028044">
        <ele>310.7</ele>
        <time>2019-05-11T10:54:04Z</time>
      </trkpt>
      <trkpt lat="39.778270" lon="-6.028132">
        <ele>310.7</ele>
        <time>2019-05-11T10:54:18Z</time>
      </trkpt>
      <trkpt lat="39.778397" lon="-6.028231">
        <ele>310.7</ele>
        <time>2019-05-11T10:54:30Z</time>
      </trkpt>
      <trkpt lat="39.778543" lon="-6.028370">
        <ele>310.7</ele>
        <time>2019-05-11T10:54:45Z</time>
      </trkpt>
      <trkpt lat="39.778685" lon="-6.028504">
        <ele>310.7</ele>
        <time>2019-05-11T10:55:16Z</time>
      </trkpt>
      <trkpt lat="39.778775" lon="-6.028610">
        <ele>310.7</ele>
        <time>2019-05-11T10:55:27Z</time>
      </trkpt>
      <trkpt lat="39.778961" lon="-6.028808">
        <ele>310.7</ele>
        <time>2019-05-11T10:55:51Z</time>
      </trkpt>
      <trkpt lat="39.779095" lon="-6.028907">
        <ele>310.2</ele>
        <time>2019-05-11T10:56:05Z</time>
      </trkpt>
      <trkpt lat="39.779167" lon="-6.028936">
        <ele>310.2</ele>
        <time>2019-05-11T10:56:56Z</time>
      </trkpt>
      <trkpt lat="39.779349" lon="-6.028969">
        <ele>310.2</ele>
        <time>2019-05-11T10:57:12Z</time>
      </trkpt>
      <trkpt lat="39.779588" lon="-6.029044">
        <ele>310.2</ele>
        <time>2019-05-11T10:57:34Z</time>
      </trkpt>
      <trkpt lat="39.779771" lon="-6.029135">
        <ele>310.2</ele>
        <time>2019-05-11T10:57:51Z</time>
      </trkpt>
      <trkpt lat="39.779950" lon="-6.029237">
        <ele>309.2</ele>
        <time>2019-05-11T10:58:06Z</time>
      </trkpt>
      <trkpt lat="39.780050" lon="-6.029294">
        <ele>308.7</ele>
        <time>2019-05-11T10:58:21Z</time>
      </trkpt>
      <trkpt lat="39.780213" lon="-6.029395">
        <ele>308.2</ele>
        <time>2019-05-11T10:58:34Z</time>
      </trkpt>
      <trkpt lat="39.780330" lon="-6.029474">
        <ele>308.2</ele>
        <time>2019-05-11T10:58:51Z</time>
      </trkpt>
      <trkpt lat="39.780399" lon="-6.029507">
        <ele>308.2</ele>
        <time>2019-05-11T10:59:06Z</time>
      </trkpt>
      <trkpt lat="39.780602" lon="-6.029635">
        <ele>307.3</ele>
        <time>2019-05-11T10:59:27Z</time>
      </trkpt>
      <trkpt lat="39.780788" lon="-6.029832">
        <ele>306.8</ele>
        <time>2019-05-11T10:59:58Z</time>
      </trkpt>
      <trkpt lat="39.780978" lon="-6.029902">
        <ele>305.8</ele>
        <time>2019-05-11T11:00:25Z</time>
      </trkpt>
      <trkpt lat="39.781106" lon="-6.029984">
        <ele>306.3</ele>
        <time>2019-05-11T11:00:37Z</time>
      </trkpt>
      <trkpt lat="39.781285" lon="-6.030085">
        <ele>305.3</ele>
        <time>2019-05-11T11:00:54Z</time>
      </trkpt>
      <trkpt lat="39.781502" lon="-6.030212">
        <ele>304.9</ele>
        <time>2019-05-11T11:01:31Z</time>
      </trkpt>
      <trkpt lat="39.781705" lon="-6.030299">
        <ele>304.4</ele>
        <time>2019-05-11T11:01:46Z</time>
      </trkpt>
      <trkpt lat="39.781888" lon="-6.030349">
        <ele>304.4</ele>
        <time>2019-05-11T11:02:05Z</time>
      </trkpt>
      <trkpt lat="39.782079" lon="-6.030369">
        <ele>304.9</ele>
        <time>2019-05-11T11:02:20Z</time>
      </trkpt>
      <trkpt lat="39.782296" lon="-6.030415">
        <ele>303.9</ele>
        <time>2019-05-11T11:02:36Z</time>
      </trkpt>
      <trkpt lat="39.782514" lon="-6.030488">
        <ele>304.4</ele>
        <time>2019-05-11T11:02:55Z</time>
      </trkpt>
      <trkpt lat="39.782643" lon="-6.030538">
        <ele>304.4</ele>
        <time>2019-05-11T11:03:07Z</time>
      </trkpt>
      <trkpt lat="39.782768" lon="-6.030634">
        <ele>304.4</ele>
        <time>2019-05-11T11:03:19Z</time>
      </trkpt>
      <trkpt lat="39.782890" lon="-6.030707">
        <ele>303.4</ele>
        <time>2019-05-11T11:03:33Z</time>
      </trkpt>
      <trkpt lat="39.782985" lon="-6.030781">
        <ele>302.9</ele>
        <time>2019-05-11T11:03:44Z</time>
      </trkpt>
      <trkpt lat="39.783186" lon="-6.030786">
        <ele>302.9</ele>
        <time>2019-05-11T11:04:00Z</time>
      </trkpt>
      <trkpt lat="39.783422" lon="-6.030779">
        <ele>302.9</ele>
        <time>2019-05-11T11:04:32Z</time>
      </trkpt>
      <trkpt lat="39.783599" lon="-6.030791">
        <ele>302.9</ele>
        <time>2019-05-11T11:04:48Z</time>
      </trkpt>
      <trkpt lat="39.783731" lon="-6.030802">
        <ele>302.9</ele>
        <time>2019-05-11T11:05:06Z</time>
      </trkpt>
      <trkpt lat="39.783840" lon="-6.030824">
        <ele>302.9</ele>
        <time>2019-05-11T11:05:22Z</time>
      </trkpt>
      <trkpt lat="39.784006" lon="-6.030851">
        <ele>302.9</ele>
        <time>2019-05-11T11:05:36Z</time>
      </trkpt>
      <trkpt lat="39.784206" lon="-6.030931">
        <ele>302.9</ele>
        <time>2019-05-11T11:05:53Z</time>
      </trkpt>
      <trkpt lat="39.784458" lon="-6.031052">
        <ele>302.5</ele>
        <time>2019-05-11T11:06:15Z</time>
      </trkpt>
      <trkpt lat="39.784687" lon="-6.031147">
        <ele>302.0</ele>
        <time>2019-05-11T11:06:34Z</time>
      </trkpt>
      <trkpt lat="39.784966" lon="-6.031255">
        <ele>302.0</ele>
        <time>2019-05-11T11:06:58Z</time>
      </trkpt>
      <trkpt lat="39.785134" lon="-6.031339">
        <ele>302.0</ele>
        <time>2019-05-11T11:07:13Z</time>
      </trkpt>
      <trkpt lat="39.785272" lon="-6.031400">
        <ele>302.0</ele>
        <time>2019-05-11T11:07:25Z</time>
      </trkpt>
      <trkpt lat="39.785499" lon="-6.031500">
        <ele>303.4</ele>
        <time>2019-05-11T11:12:15Z</time>
      </trkpt>
      <trkpt lat="39.785691" lon="-6.031551">
        <ele>303.4</ele>
        <time>2019-05-11T11:12:36Z</time>
      </trkpt>
      <trkpt lat="39.785902" lon="-6.031674">
        <ele>303.4</ele>
        <time>2019-05-11T11:12:58Z</time>
      </trkpt>
      <trkpt lat="39.786089" lon="-6.031753">
        <ele>303.4</ele>
        <time>2019-05-11T11:13:20Z</time>
      </trkpt>
      <trkpt lat="39.786165" lon="-6.031767">
        <ele>303.4</ele>
        <time>2019-05-11T11:13:34Z</time>
      </trkpt>
      <trkpt lat="39.786119" lon="-6.031546">
        <ele>301.0</ele>
        <time>2019-05-11T11:20:55Z</time>
      </trkpt>
      <trkpt lat="39.786100" lon="-6.031389">
        <ele>301.0</ele>
        <time>2019-05-11T11:24:45Z</time>
      </trkpt>
      <trkpt lat="39.786061" lon="-6.031164">
        <ele>301.0</ele>
        <time>2019-05-11T11:25:05Z</time>
      </trkpt>
      <trkpt lat="39.786029" lon="-6.030941">
        <ele>300.1</ele>
        <time>2019-05-11T11:25:21Z</time>
      </trkpt>
      <trkpt lat="39.786030" lon="-6.030790">
        <ele>300.1</ele>
        <time>2019-05-11T11:25:36Z</time>
      </trkpt>
      <trkpt lat="39.785997" lon="-6.030658">
        <ele>300.1</ele>
        <time>2019-05-11T11:26:45Z</time>
      </trkpt>
      <trkpt lat="39.785967" lon="-6.030512">
        <ele>300.1</ele>
        <time>2019-05-11T11:26:54Z</time>
      </trkpt>
      <trkpt lat="39.785915" lon="-6.030322">
        <ele>298.6</ele>
        <time>2019-05-11T11:28:12Z</time>
      </trkpt>
      <trkpt lat="39.785854" lon="-6.030096">
        <ele>299.1</ele>
        <time>2019-05-11T11:28:31Z</time>
      </trkpt>
      <trkpt lat="39.785845" lon="-6.030011">
        <ele>299.1</ele>
        <time>2019-05-11T11:28:38Z</time>
      </trkpt>
      <trkpt lat="39.785806" lon="-6.029769">
        <ele>297.7</ele>
        <time>2019-05-11T11:29:20Z</time>
      </trkpt>
      <trkpt lat="39.785717" lon="-6.029592">
        <ele>297.2</ele>
        <time>2019-05-11T11:29:36Z</time>
      </trkpt>
      <trkpt lat="39.785678" lon="-6.029430">
        <ele>296.2</ele>
        <time>2019-05-11T11:34:14Z</time>
      </trkpt>
      <trkpt lat="39.785582" lon="-6.029191">
        <ele>296.2</ele>
        <time>2019-05-11T11:34:40Z</time>
      </trkpt>
      <trkpt lat="39.785512" lon="-6.029010">
        <ele>294.8</ele>
        <time>2019-05-11T11:35:06Z</time>
      </trkpt>
      <trkpt lat="39.785441" lon="-6.028786">
        <ele>289.5</ele>
        <time>2019-05-11T11:37:03Z</time>
      </trkpt>
      <trkpt lat="39.785388" lon="-6.028581">
        <ele>289.0</ele>
        <time>2019-05-11T11:37:29Z</time>
      </trkpt>
      <trkpt lat="39.785356" lon="-6.028413">
        <ele>286.6</ele>
        <time>2019-05-11T11:37:53Z</time>
      </trkpt>
      <trkpt lat="39.785287" lon="-6.028293">
        <ele>285.2</ele>
        <time>2019-05-11T11:38:06Z</time>
      </trkpt>
      <trkpt lat="39.785219" lon="-6.028084">
        <ele>281.8</ele>
        <time>2019-05-11T11:38:25Z</time>
      </trkpt>
      <trkpt lat="39.785161" lon="-6.027915">
        <ele>279.4</ele>
        <time>2019-05-11T11:38:43Z</time>
      </trkpt>
      <trkpt lat="39.785121" lon="-6.027729">
        <ele>274.6</ele>
        <time>2019-05-11T11:39:53Z</time>
      </trkpt>
      <trkpt lat="39.785163" lon="-6.027648">
        <ele>274.6</ele>
        <time>2019-05-11T11:40:13Z</time>
      </trkpt>
      <trkpt lat="39.785175" lon="-6.027485">
        <ele>273.6</ele>
        <time>2019-05-11T11:40:28Z</time>
      </trkpt>
      <trkpt lat="39.785137" lon="-6.027340">
        <ele>270.8</ele>
        <time>2019-05-11T11:40:44Z</time>
      </trkpt>
      <trkpt lat="39.785071" lon="-6.027277">
        <ele>266.9</ele>
        <time>2019-05-11T11:42:27Z</time>
      </trkpt>
      <trkpt lat="39.785143" lon="-6.027130">
        <ele>266.4</ele>
        <time>2019-05-11T11:43:22Z</time>
      </trkpt>
      <trkpt lat="39.785084" lon="-6.027050">
        <ele>264.5</ele>
        <time>2019-05-11T11:44:41Z</time>
      </trkpt>
      <trkpt lat="39.785065" lon="-6.026975">
        <ele>264.5</ele>
        <time>2019-05-11T11:44:50Z</time>
      </trkpt>
      <trkpt lat="39.785120" lon="-6.026853">
        <ele>268.3</ele>
        <time>2019-05-11T11:54:16Z</time>
      </trkpt>
      <trkpt lat="39.785116" lon="-6.026741">
        <ele>270.8</ele>
        <time>2019-05-11T11:54:40Z</time>
      </trkpt>
      <trkpt lat="39.785067" lon="-6.026583">
        <ele>275.6</ele>
        <time>2019-05-11T11:56:40Z</time>
      </trkpt>
      <trkpt lat="39.784942" lon="-6.026542">
        <ele>275.6</ele>
        <time>2019-05-11T11:57:07Z</time>
      </trkpt>
      <trkpt lat="39.784844" lon="-6.026523">
        <ele>276.0</ele>
        <time>2019-05-11T11:57:18Z</time>
      </trkpt>
      <trkpt lat="39.784843" lon="-6.026434">
        <ele>277.0</ele>
        <time>2019-05-11T11:57:30Z</time>
      </trkpt>
      <trkpt lat="39.784906" lon="-6.026234">
        <ele>280.4</ele>
        <time>2019-05-11T11:59:29Z</time>
      </trkpt>
      <trkpt lat="39.784933" lon="-6.026052">
        <ele>283.3</ele>
        <time>2019-05-11T11:59:53Z</time>
      </trkpt>
      <trkpt lat="39.784998" lon="-6.025949">
        <ele>285.2</ele>
        <time>2019-05-11T12:00:18Z</time>
      </trkpt>
      <trkpt lat="39.784999" lon="-6.025810">
        <ele>286.1</ele>
        <time>2019-05-11T12:00:43Z</time>
      </trkpt>
      <trkpt lat="39.785041" lon="-6.025654">
        <ele>287.1</ele>
        <time>2019-05-11T12:01:12Z</time>
      </trkpt>
      <trkpt lat="39.785069" lon="-6.025433">
        <ele>288.0</ele>
        <time>2019-05-11T12:01:33Z</time>
      </trkpt>
      <trkpt lat="39.785067" lon="-6.025291">
        <ele>288.5</ele>
        <time>2019-05-11T12:02:12Z</time>
      </trkpt>
      <trkpt lat="39.785086" lon="-6.025203">
        <ele>288.5</ele>
        <time>2019-05-11T12:02:27Z</time>
      </trkpt>
      <trkpt lat="39.785105" lon="-6.024941">
        <ele>288.5</ele>
        <time>2019-05-11T12:02:46Z</time>
      </trkpt>
      <trkpt lat="39.785114" lon="-6.024811">
        <ele>289.0</ele>
        <time>2019-05-11T12:02:58Z</time>
      </trkpt>
      <trkpt lat="39.785124" lon="-6.024652">
        <ele>289.0</ele>
        <time>2019-05-11T12:03:12Z</time>
      </trkpt>
      <trkpt lat="39.785018" lon="-6.024397">
        <ele>290.0</ele>
        <time>2019-05-11T12:03:59Z</time>
      </trkpt>
      <trkpt lat="39.784977" lon="-6.024219">
        <ele>290.0</ele>
        <time>2019-05-11T12:04:15Z</time>
      </trkpt>
      <trkpt lat="39.784907" lon="-6.023947">
        <ele>290.0</ele>
        <time>2019-05-11T12:04:34Z</time>
      </trkpt>
      <trkpt lat="39.784867" lon="-6.023700">
        <ele>290.0</ele>
        <time>2019-05-11T12:04:52Z</time>
      </trkpt>
      <trkpt lat="39.784840" lon="-6.023475">
        <ele>289.0</ele>
        <time>2019-05-11T12:05:08Z</time>
      </trkpt>
      <trkpt lat="39.784780" lon="-6.023208">
        <ele>289.0</ele>
        <time>2019-05-11T12:05:27Z</time>
      </trkpt>
      <trkpt lat="39.784751" lon="-6.023076">
        <ele>288.0</ele>
        <time>2019-05-11T12:05:37Z</time>
      </trkpt>
      <trkpt lat="39.784694" lon="-6.022788">
        <ele>286.6</ele>
        <time>2019-05-11T12:06:00Z</time>
      </trkpt>
      <trkpt lat="39.784679" lon="-6.022618">
        <ele>286.6</ele>
        <time>2019-05-11T12:07:20Z</time>
      </trkpt>
      <trkpt lat="39.784634" lon="-6.022415">
        <ele>286.1</ele>
        <time>2019-05-11T12:07:35Z</time>
      </trkpt>
      <trkpt lat="39.784588" lon="-6.022297">
        <ele>285.7</ele>
        <time>2019-05-11T12:07:47Z</time>
      </trkpt>
      <trkpt lat="39.784557" lon="-6.022218">
        <ele>285.7</ele>
        <time>2019-05-11T12:08:03Z</time>
      </trkpt>
      <trkpt lat="39.784445" lon="-6.022333">
        <ele>285.7</ele>
        <time>2019-05-11T12:09:19Z</time>
      </trkpt>
      <trkpt lat="39.784326" lon="-6.022371">
        <ele>285.7</ele>
        <time>2019-05-11T12:10:01Z</time>
      </trkpt>
      <trkpt lat="39.784250" lon="-6.022424">
        <ele>285.7</ele>
        <time>2019-05-11T12:10:12Z</time>
      </trkpt>
      <trkpt lat="39.784141" lon="-6.022524">
        <ele>285.7</ele>
        <time>2019-05-11T12:10:24Z</time>
      </trkpt>
      <trkpt lat="39.784013" lon="-6.022678">
        <ele>287.1</ele>
        <time>2019-05-11T12:10:40Z</time>
      </trkpt>
      <trkpt lat="39.783956" lon="-6.022714">
        <ele>287.1</ele>
        <time>2019-05-11T12:10:48Z</time>
      </trkpt>
      <trkpt lat="39.783873" lon="-6.022807">
        <ele>287.1</ele>
        <time>2019-05-11T12:10:57Z</time>
      </trkpt>
      <trkpt lat="39.783811" lon="-6.022877">
        <ele>287.1</ele>
        <time>2019-05-11T12:11:07Z</time>
      </trkpt>
      <trkpt lat="39.783670" lon="-6.022881">
        <ele>289.0</ele>
        <time>2019-05-11T12:11:31Z</time>
      </trkpt>
      <trkpt lat="39.783596" lon="-6.022907">
        <ele>289.0</ele>
        <time>2019-05-11T12:11:42Z</time>
      </trkpt>
      <trkpt lat="39.783498" lon="-6.023008">
        <ele>289.0</ele>
        <time>2019-05-11T12:12:12Z</time>
      </trkpt>
      <trkpt lat="39.783391" lon="-6.023106">
        <ele>287.1</ele>
        <time>2019-05-11T12:12:48Z</time>
      </trkpt>
      <trkpt lat="39.783247" lon="-6.023175">
        <ele>285.7</ele>
        <time>2019-05-11T12:13:03Z</time>
      </trkpt>
      <trkpt lat="39.783174" lon="-6.023219">
        <ele>285.2</ele>
        <time>2019-05-11T12:13:11Z</time>
      </trkpt>
      <trkpt lat="39.783047" lon="-6.023350">
        <ele>282.8</ele>
        <time>2019-05-11T12:13:26Z</time>
      </trkpt>
      <trkpt lat="39.782987" lon="-6.023412">
        <ele>281.8</ele>
        <time>2019-05-11T12:13:34Z</time>
      </trkpt>
      <trkpt lat="39.782851" lon="-6.023488">
        <ele>279.4</ele>
        <time>2019-05-11T12:13:52Z</time>
      </trkpt>
      <trkpt lat="39.782760" lon="-6.023511">
        <ele>278.9</ele>
        <time>2019-05-11T12:14:14Z</time>
      </trkpt>
      <trkpt lat="39.782685" lon="-6.023393">
        <ele>278.4</ele>
        <time>2019-05-11T12:14:43Z</time>
      </trkpt>
      <trkpt lat="39.782623" lon="-6.023262">
        <ele>277.9</ele>
        <time>2019-05-11T12:16:00Z</time>
      </trkpt>
      <trkpt lat="39.782558" lon="-6.023131">
        <ele>277.9</ele>
        <time>2019-05-11T12:18:09Z</time>
      </trkpt>
      <trkpt lat="39.782522" lon="-6.023254">
        <ele>277.9</ele>
        <time>2019-05-11T12:19:51Z</time>
      </trkpt>
      <trkpt lat="39.782432" lon="-6.023284">
        <ele>279.4</ele>
        <time>2019-05-11T12:22:03Z</time>
      </trkpt>
      <trkpt lat="39.782337" lon="-6.023348">
        <ele>279.4</ele>
        <time>2019-05-11T12:22:34Z</time>
      </trkpt>
      <trkpt lat="39.782199" lon="-6.023350">
        <ele>280.4</ele>
        <time>2019-05-11T12:23:00Z</time>
      </trkpt>
      <trkpt lat="39.782171" lon="-6.023223">
        <ele>281.3</ele>
        <time>2019-05-11T12:24:58Z</time>
      </trkpt>
      <trkpt lat="39.782162" lon="-6.023142">
        <ele>281.3</ele>
        <time>2019-05-11T12:25:12Z</time>
      </trkpt>
      <trkpt lat="39.782140" lon="-6.023025">
        <ele>281.3</ele>
        <time>2019-05-11T12:25:25Z</time>
      </trkpt>
      <trkpt lat="39.782138" lon="-6.022930">
        <ele>282.3</ele>
        <time>2019-05-11T12:25:38Z</time>
      </trkpt>
      <trkpt lat="39.782115" lon="-6.022830">
        <ele>282.3</ele>
        <time>2019-05-11T12:25:51Z</time>
      </trkpt>
      <trkpt lat="39.782066" lon="-6.022587">
        <ele>282.3</ele>
        <time>2019-05-11T12:27:20Z</time>
      </trkpt>
      <trkpt lat="39.782054" lon="-6.022496">
        <ele>282.3</ele>
        <time>2019-05-11T12:27:31Z</time>
      </trkpt>
      <trkpt lat="39.782019" lon="-6.022400">
        <ele>282.3</ele>
        <time>2019-05-11T12:27:43Z</time>
      </trkpt>
      <trkpt lat="39.782035" lon="-6.022238">
        <ele>282.3</ele>
        <time>2019-05-11T12:27:58Z</time>
      </trkpt>
      <trkpt lat="39.782041" lon="-6.022130">
        <ele>280.8</ele>
        <time>2019-05-11T12:28:12Z</time>
      </trkpt>
      <trkpt lat="39.781993" lon="-6.021958">
        <ele>279.9</ele>
        <time>2019-05-11T12:28:33Z</time>
      </trkpt>
      <trkpt lat="39.781916" lon="-6.021924">
        <ele>279.4</ele>
        <time>2019-05-11T12:28:44Z</time>
      </trkpt>
      <trkpt lat="39.781765" lon="-6.021887">
        <ele>279.4</ele>
        <time>2019-05-11T12:29:07Z</time>
      </trkpt>
      <trkpt lat="39.781625" lon="-6.021852">
        <ele>279.4</ele>
        <time>2019-05-11T12:29:19Z</time>
      </trkpt>
      <trkpt lat="39.781531" lon="-6.021878">
        <ele>279.4</ele>
        <time>2019-05-11T12:29:34Z</time>
      </trkpt>
      <trkpt lat="39.781410" lon="-6.021896">
        <ele>280.4</ele>
        <time>2019-05-11T12:29:53Z</time>
      </trkpt>
      <trkpt lat="39.781213" lon="-6.021952">
        <ele>280.8</ele>
        <time>2019-05-11T12:30:13Z</time>
      </trkpt>
      <trkpt lat="39.781138" lon="-6.021999">
        <ele>280.8</ele>
        <time>2019-05-11T12:30:21Z</time>
      </trkpt>
      <trkpt lat="39.780965" lon="-6.022079">
        <ele>280.8</ele>
        <time>2019-05-11T12:30:37Z</time>
      </trkpt>
      <trkpt lat="39.780882" lon="-6.022124">
        <ele>280.8</ele>
        <time>2019-05-11T12:30:47Z</time>
      </trkpt>
      <trkpt lat="39.780810" lon="-6.022203">
        <ele>280.8</ele>
        <time>2019-05-11T12:31:02Z</time>
      </trkpt>
      <trkpt lat="39.780731" lon="-6.022271">
        <ele>280.8</ele>
        <time>2019-05-11T12:32:24Z</time>
      </trkpt>
      <trkpt lat="39.780610" lon="-6.022318">
        <ele>280.8</ele>
        <time>2019-05-11T12:32:37Z</time>
      </trkpt>
      <trkpt lat="39.780491" lon="-6.022344">
        <ele>280.8</ele>
        <time>2019-05-11T12:32:50Z</time>
      </trkpt>
      <trkpt lat="39.780388" lon="-6.022390">
        <ele>280.8</ele>
        <time>2019-05-11T12:33:03Z</time>
      </trkpt>
      <trkpt lat="39.780230" lon="-6.022422">
        <ele>280.8</ele>
        <time>2019-05-11T12:33:18Z</time>
      </trkpt>
      <trkpt lat="39.780083" lon="-6.022444">
        <ele>280.8</ele>
        <time>2019-05-11T12:33:31Z</time>
      </trkpt>
      <trkpt lat="39.779964" lon="-6.022465">
        <ele>280.8</ele>
        <time>2019-05-11T12:33:44Z</time>
      </trkpt>
      <trkpt lat="39.779817" lon="-6.022495">
        <ele>280.8</ele>
        <time>2019-05-11T12:33:56Z</time>
      </trkpt>
      <trkpt lat="39.779620" lon="-6.022475">
        <ele>280.8</ele>
        <time>2019-05-11T12:34:19Z</time>
      </trkpt>
      <trkpt lat="39.779436" lon="-6.022496">
        <ele>280.8</ele>
        <time>2019-05-11T12:35:13Z</time>
      </trkpt>
      <trkpt lat="39.779250" lon="-6.022409">
        <ele>282.3</ele>
        <time>2019-05-11T12:38:03Z</time>
      </trkpt>
      <trkpt lat="39.779065" lon="-6.022350">
        <ele>282.3</ele>
        <time>2019-05-11T12:38:38Z</time>
      </trkpt>
      <trkpt lat="39.778886" lon="-6.022398">
        <ele>282.8</ele>
        <time>2019-05-11T12:38:55Z</time>
      </trkpt>
      <trkpt lat="39.778792" lon="-6.022432">
        <ele>283.3</ele>
        <time>2019-05-11T12:39:09Z</time>
      </trkpt>
      <trkpt lat="39.778633" lon="-6.022493">
        <ele>283.3</ele>
        <time>2019-05-11T12:39:25Z</time>
      </trkpt>
      <trkpt lat="39.778506" lon="-6.022550">
        <ele>283.7</ele>
        <time>2019-05-11T12:39:40Z</time>
      </trkpt>
      <trkpt lat="39.778338" lon="-6.022639">
        <ele>284.2</ele>
        <time>2019-05-11T12:39:58Z</time>
      </trkpt>
      <trkpt lat="39.778190" lon="-6.022675">
        <ele>284.2</ele>
        <time>2019-05-11T12:40:39Z</time>
      </trkpt>
      <trkpt lat="39.777988" lon="-6.022780">
        <ele>284.2</ele>
        <time>2019-05-11T12:40:58Z</time>
      </trkpt>
      <trkpt lat="39.777822" lon="-6.022887">
        <ele>284.2</ele>
        <time>2019-05-11T12:41:16Z</time>
      </trkpt>
      <trkpt lat="39.777712" lon="-6.022969">
        <ele>284.2</ele>
        <time>2019-05-11T12:41:31Z</time>
      </trkpt>
      <trkpt lat="39.777640" lon="-6.023014">
        <ele>284.2</ele>
        <time>2019-05-11T12:41:39Z</time>
      </trkpt>
      <trkpt lat="39.777512" lon="-6.023091">
        <ele>284.2</ele>
        <time>2019-05-11T12:41:55Z</time>
      </trkpt>
      <trkpt lat="39.777415" lon="-6.023114">
        <ele>284.2</ele>
        <time>2019-05-11T12:42:07Z</time>
      </trkpt>
      <trkpt lat="39.777306" lon="-6.023099">
        <ele>284.2</ele>
        <time>2019-05-11T12:42:19Z</time>
      </trkpt>
      <trkpt lat="39.777116" lon="-6.023163">
        <ele>283.3</ele>
        <time>2019-05-11T12:48:05Z</time>
      </trkpt>
      <trkpt lat="39.777041" lon="-6.023025">
        <ele>284.2</ele>
        <time>2019-05-11T12:48:18Z</time>
      </trkpt>
      <trkpt lat="39.776992" lon="-6.023016">
        <ele>284.7</ele>
        <time>2019-05-11T12:48:24Z</time>
      </trkpt>
      <trkpt lat="39.776857" lon="-6.022974">
        <ele>285.7</ele>
        <time>2019-05-11T12:48:39Z</time>
      </trkpt>
      <trkpt lat="39.776702" lon="-6.022933">
        <ele>285.7</ele>
        <time>2019-05-11T12:48:56Z</time>
      </trkpt>
      <trkpt lat="39.776508" lon="-6.022884">
        <ele>286.6</ele>
        <time>2019-05-11T12:49:38Z</time>
      </trkpt>
      <trkpt lat="39.776341" lon="-6.022882">
        <ele>286.6</ele>
        <time>2019-05-11T12:49:54Z</time>
      </trkpt>
      <trkpt lat="39.776161" lon="-6.022848">
        <ele>286.6</ele>
        <time>2019-05-11T12:50:12Z</time>
      </trkpt>
      <trkpt lat="39.776003" lon="-6.022766">
        <ele>287.6</ele>
        <time>2019-05-11T12:50:28Z</time>
      </trkpt>
      <trkpt lat="39.775861" lon="-6.022720">
        <ele>287.6</ele>
        <time>2019-05-11T12:50:43Z</time>
      </trkpt>
      <trkpt lat="39.775753" lon="-6.022711">
        <ele>287.6</ele>
        <time>2019-05-11T12:50:55Z</time>
      </trkpt>
      <trkpt lat="39.775591" lon="-6.022689">
        <ele>287.6</ele>
        <time>2019-05-11T12:51:14Z</time>
      </trkpt>
      <trkpt lat="39.775490" lon="-6.022681">
        <ele>287.6</ele>
        <time>2019-05-11T12:51:26Z</time>
      </trkpt>
      <trkpt lat="39.775397" lon="-6.022649">
        <ele>287.6</ele>
        <time>2019-05-11T12:51:36Z</time>
      </trkpt>
      <trkpt lat="39.775288" lon="-6.022579">
        <ele>287.6</ele>
        <time>2019-05-11T12:51:50Z</time>
      </trkpt>
      <trkpt lat="39.775192" lon="-6.022479">
        <ele>287.6</ele>
        <time>2019-05-11T12:52:07Z</time>
      </trkpt>
      <trkpt lat="39.775185" lon="-6.022346">
        <ele>286.1</ele>
        <time>2019-05-11T12:58:03Z</time>
      </trkpt>
      <trkpt lat="39.775108" lon="-6.022257">
        <ele>286.1</ele>
        <time>2019-05-11T12:58:18Z</time>
      </trkpt>
      <trkpt lat="39.775060" lon="-6.022172">
        <ele>286.1</ele>
        <time>2019-05-11T12:58:42Z</time>
      </trkpt>
      <trkpt lat="39.774983" lon="-6.022048">
        <ele>286.1</ele>
        <time>2019-05-11T12:58:56Z</time>
      </trkpt>
      <trkpt lat="39.774888" lon="-6.021933">
        <ele>286.1</ele>
        <time>2019-05-11T12:59:13Z</time>
      </trkpt>
      <trkpt lat="39.774858" lon="-6.021814">
        <ele>286.1</ele>
        <time>2019-05-11T12:59:36Z</time>
      </trkpt>
      <trkpt lat="39.774780" lon="-6.021722">
        <ele>286.6</ele>
        <time>2019-05-11T12:59:51Z</time>
      </trkpt>
      <trkpt lat="39.774726" lon="-6.021628">
        <ele>286.6</ele>
        <time>2019-05-11T13:00:00Z</time>
      </trkpt>
      <trkpt lat="39.774580" lon="-6.021564">
        <ele>286.6</ele>
        <time>2019-05-11T13:00:49Z</time>
      </trkpt>
      <trkpt lat="39.774486" lon="-6.021513">
        <ele>286.6</ele>
        <time>2019-05-11T13:01:01Z</time>
      </trkpt>
      <trkpt lat="39.774381" lon="-6.021457">
        <ele>286.6</ele>
        <time>2019-05-11T13:01:16Z</time>
      </trkpt>
      <trkpt lat="39.774291" lon="-6.021437">
        <ele>286.6</ele>
        <time>2019-05-11T13:01:28Z</time>
      </trkpt>
      <trkpt lat="39.774129" lon="-6.021372">
        <ele>286.6</ele>
        <time>2019-05-11T13:01:47Z</time>
      </trkpt>
      <trkpt lat="39.773856" lon="-6.021230">
        <ele>287.6</ele>
        <time>2019-05-11T13:03:28Z</time>
      </trkpt>
      <trkpt lat="39.773718" lon="-6.021207">
        <ele>287.6</ele>
        <time>2019-05-11T13:06:14Z</time>
      </trkpt>
      <trkpt lat="39.773638" lon="-6.021211">
        <ele>287.6</ele>
        <time>2019-05-11T13:06:40Z</time>
      </trkpt>
      <trkpt lat="39.773441" lon="-6.021277">
        <ele>287.6</ele>
        <time>2019-05-11T13:06:58Z</time>
      </trkpt>
      <trkpt lat="39.773287" lon="-6.021382">
        <ele>287.6</ele>
        <time>2019-05-11T13:07:12Z</time>
      </trkpt>
      <trkpt lat="39.773139" lon="-6.021494">
        <ele>288.0</ele>
        <time>2019-05-11T13:07:26Z</time>
      </trkpt>
      <trkpt lat="39.772999" lon="-6.021585">
        <ele>288.5</ele>
        <time>2019-05-11T13:07:41Z</time>
      </trkpt>
      <trkpt lat="39.772852" lon="-6.021670">
        <ele>288.5</ele>
        <time>2019-05-11T13:07:53Z</time>
      </trkpt>
      <trkpt lat="39.772668" lon="-6.021790">
        <ele>289.0</ele>
        <time>2019-05-11T13:08:12Z</time>
      </trkpt>
      <trkpt lat="39.772563" lon="-6.021866">
        <ele>289.5</ele>
        <time>2019-05-11T13:08:24Z</time>
      </trkpt>
      <trkpt lat="39.772484" lon="-6.021845">
        <ele>290.0</ele>
        <time>2019-05-11T13:08:33Z</time>
      </trkpt>
      <trkpt lat="39.772307" lon="-6.021682">
        <ele>290.0</ele>
        <time>2019-05-11T13:09:22Z</time>
      </trkpt>
      <trkpt lat="39.772165" lon="-6.021512">
        <ele>290.0</ele>
        <time>2019-05-11T13:09:53Z</time>
      </trkpt>
      <trkpt lat="39.772030" lon="-6.021427">
        <ele>290.0</ele>
        <time>2019-05-11T13:10:05Z</time>
      </trkpt>
      <trkpt lat="39.771897" lon="-6.021353">
        <ele>291.4</ele>
        <time>2019-05-11T13:10:19Z</time>
      </trkpt>
      <trkpt lat="39.771714" lon="-6.021333">
        <ele>292.9</ele>
        <time>2019-05-11T13:10:36Z</time>
      </trkpt>
      <trkpt lat="39.771494" lon="-6.021457">
        <ele>293.3</ele>
        <time>2019-05-11T13:10:58Z</time>
      </trkpt>
      <trkpt lat="39.771292" lon="-6.021542">
        <ele>293.3</ele>
        <time>2019-05-11T13:11:14Z</time>
      </trkpt>
      <trkpt lat="39.771176" lon="-6.021393">
        <ele>293.3</ele>
        <time>2019-05-11T13:11:30Z</time>
      </trkpt>
      <trkpt lat="39.771079" lon="-6.021161">
        <ele>293.3</ele>
        <time>2019-05-11T13:11:49Z</time>
      </trkpt>
      <trkpt lat="39.770984" lon="-6.020946">
        <ele>293.3</ele>
        <time>2019-05-11T13:12:04Z</time>
      </trkpt>
      <trkpt lat="39.770922" lon="-6.020790">
        <ele>292.4</ele>
        <time>2019-05-11T13:12:13Z</time>
      </trkpt>
      <trkpt lat="39.770912" lon="-6.020683">
        <ele>292.4</ele>
        <time>2019-05-11T13:12:20Z</time>
      </trkpt>
      <trkpt lat="39.770895" lon="-6.020424">
        <ele>292.4</ele>
        <time>2019-05-11T13:12:38Z</time>
      </trkpt>
      <trkpt lat="39.770798" lon="-6.020179">
        <ele>291.9</ele>
        <time>2019-05-11T13:12:54Z</time>
      </trkpt>
      <trkpt lat="39.770711" lon="-6.020012">
        <ele>291.9</ele>
        <time>2019-05-11T13:13:09Z</time>
      </trkpt>
      <trkpt lat="39.770604" lon="-6.019722">
        <ele>291.4</ele>
        <time>2019-05-11T13:13:25Z</time>
      </trkpt>
      <trkpt lat="39.770595" lon="-6.019454">
        <ele>291.4</ele>
        <time>2019-05-11T13:13:40Z</time>
      </trkpt>
      <trkpt lat="39.770618" lon="-6.019311">
        <ele>291.4</ele>
        <time>2019-05-11T13:13:52Z</time>
      </trkpt>
      <trkpt lat="39.770642" lon="-6.019129">
        <ele>291.4</ele>
        <time>2019-05-11T13:14:07Z</time>
      </trkpt>
      <trkpt lat="39.770617" lon="-6.018875">
        <ele>292.9</ele>
        <time>2019-05-11T13:14:23Z</time>
      </trkpt>
      <trkpt lat="39.770584" lon="-6.018620">
        <ele>294.3</ele>
        <time>2019-05-11T13:14:41Z</time>
      </trkpt>
      <trkpt lat="39.770558" lon="-6.018411">
        <ele>295.7</ele>
        <time>2019-05-11T13:14:55Z</time>
      </trkpt>
      <trkpt lat="39.770554" lon="-6.018304">
        <ele>296.7</ele>
        <time>2019-05-11T13:15:10Z</time>
      </trkpt>
      <trkpt lat="39.770561" lon="-6.018170">
        <ele>297.2</ele>
        <time>2019-05-11T13:15:25Z</time>
      </trkpt>
      <trkpt lat="39.770570" lon="-6.017972">
        <ele>297.7</ele>
        <time>2019-05-11T13:15:37Z</time>
      </trkpt>
      <trkpt lat="39.770535" lon="-6.017696">
        <ele>297.7</ele>
        <time>2019-05-11T13:15:56Z</time>
      </trkpt>
      <trkpt lat="39.770450" lon="-6.017470">
        <ele>298.6</ele>
        <time>2019-05-11T13:16:12Z</time>
      </trkpt>
      <trkpt lat="39.770380" lon="-6.017283">
        <ele>298.6</ele>
        <time>2019-05-11T13:16:29Z</time>
      </trkpt>
      <trkpt lat="39.770297" lon="-6.017082">
        <ele>298.6</ele>
        <time>2019-05-11T13:16:45Z</time>
      </trkpt>
      <trkpt lat="39.770219" lon="-6.016918">
        <ele>298.6</ele>
        <time>2019-05-11T13:16:58Z</time>
      </trkpt>
      <trkpt lat="39.770144" lon="-6.016730">
        <ele>298.6</ele>
        <time>2019-05-11T13:17:13Z</time>
      </trkpt>
      <trkpt lat="39.770059" lon="-6.016523">
        <ele>298.6</ele>
        <time>2019-05-11T13:17:27Z</time>
      </trkpt>
      <trkpt lat="39.769972" lon="-6.016353">
        <ele>298.6</ele>
        <time>2019-05-11T13:17:40Z</time>
      </trkpt>
      <trkpt lat="39.769885" lon="-6.016197">
        <ele>298.6</ele>
        <time>2019-05-11T13:17:55Z</time>
      </trkpt>
      <trkpt lat="39.769768" lon="-6.016138">
        <ele>298.6</ele>
        <time>2019-05-11T13:18:07Z</time>
      </trkpt>
      <trkpt lat="39.769727" lon="-6.016141">
        <ele>299.1</ele>
        <time>2019-05-11T13:18:11Z</time>
      </trkpt>
      <trkpt lat="39.769576" lon="-6.016214">
        <ele>300.6</ele>
        <time>2019-05-11T13:18:26Z</time>
      </trkpt>
      <trkpt lat="39.769534" lon="-6.016228">
        <ele>301.0</ele>
        <time>2019-05-11T13:18:41Z</time>
      </trkpt>
      <trkpt lat="39.769534" lon="-6.016228">
        <ele>301.5</ele>
        <time>2019-05-11T13:18:57Z</time>
      </trkpt>
    </trkseg>
  </trk>
</gpx>
